Time;durP1;ratioP1;P1;durP2;ratioP2;P2;SDS_P1;SDS_P2;PMS_P1;PMS_P2;Temp;Humidity;BMP_temperature;BMP_pressure;BME280_temperature;BME280_humidity;BME280_pressure;Samples;Min_cycle;Max_cycle;Signal;HPM_P1;HPM_P2
2024/01/04 00:00:29;;;;;;;0.43;0.43;;;6.00;99.90;;;;;;5056985;28;20494;-79
2024/01/04 00:02:55;;;;;;;0.60;0.60;;;;;;;;;;5068731;28;20036;-79
2024/01/04 00:05:21;;;;;;;;;;;5.70;99.90;;;;;;5089544;28;20051;-79
2024/01/04 00:10:19;;;;;;;0.50;0.50;;;5.70;99.90;;;;;;5085229;28;20468;-80
2024/01/04 00:12:44;;;;;;;0.50;0.50;;;5.70;99.90;;;;;;5061705;28;20047;-78
2024/01/04 00:15:10;;;;;;;0.65;0.65;;;5.60;99.90;;;;;;5072999;28;20044;-79
2024/01/04 00:17:36;;;;;;;0.50;0.50;;;5.70;99.90;;;;;;5056243;28;20090;-80
2024/01/04 00:20:02;;;;;;;0.50;0.50;;;5.60;99.90;;;;;;5056945;28;20070;-80
2024/01/04 00:22:28;;;;;;;0.57;0.57;;;5.60;99.90;;;;;;5082802;28;20035;-79
2024/01/04 00:24:54;;;;;;;0.50;0.50;;;5.60;99.90;;;;;;5019998;28;20032;-78
2024/01/04 00:27:20;;;;;;;0.60;0.60;;;5.60;99.90;;;;;;5061200;28;20477;-79
2024/01/04 00:29:46;;;;;;;0.60;0.60;;;5.60;99.90;;;;;;5065354;28;20139;-78
2024/01/04 00:32:12;;;;;;;;;;;5.50;99.90;;;;;;5063659;28;20051;-79
2024/01/04 00:34:37;;;;;;;4.68;1.50;;;5.50;99.90;;;;;;5055273;28;19932;-78
2024/01/04 00:37:06;;;;;;;0.50;0.50;;;5.50;99.90;;;;;;5035812;28;20055;-78
2024/01/04 00:39:32;;;;;;;0.57;0.57;;;5.50;99.90;;;;;;5033438;28;20040;-79
2024/01/04 00:42:02;;;;;;;1.23;1.23;;;5.50;99.90;;;;;;5041226;28;20048;-79
2024/01/04 00:44:28;;;;;;;0.60;0.60;;;5.50;99.90;;;;;;5058605;28;20051;-78
2024/01/04 00:46:54;;;;;;;;;;;5.40;99.90;;;;;;5064279;28;20402;-78
2024/01/04 00:49:20;;;;;;;0.45;0.45;;;5.60;99.90;;;;;;5047970;28;19916;-78
2024/01/04 00:51:46;;;;;;;0.60;0.60;;;5.50;99.90;;;;;;5046070;28;20493;-78
2024/01/04 00:54:13;;;;;;;0.50;0.50;;;5.50;99.90;;;;;;5065376;28;20048;-79
2024/01/04 00:56:39;;;;;;;0.60;0.60;;;5.40;99.90;;;;;;5037971;28;20044;-78
2024/01/04 00:59:04;;;;;;;0.40;0.40;;;5.40;99.90;;;;;;5052513;28;20044;-79
2024/01/04 01:01:32;;;;;;;0.52;0.52;;;5.40;99.90;;;;;;5038764;28;20127;-78
2024/01/04 01:03:58;;;;;;;0.50;0.50;;;5.40;99.90;;;;;;5055591;28;20040;-78
2024/01/04 01:06:24;;;;;;;0.60;0.60;;;5.40;99.90;;;;;;5059707;28;20513;-78
2024/01/04 01:08:49;;;;;;;0.52;0.52;;;5.40;99.90;;;;;;5028589;28;20196;-80
2024/01/04 01:11:15;;;;;;;0.60;0.60;;;5.40;99.90;;;;;;5032391;28;20049;-78
2024/01/04 01:13:41;;;;;;;0.50;0.50;;;5.40;99.90;;;;;;5038048;28;20059;-78
2024/01/04 01:16:08;;;;;;;0.57;0.57;;;5.40;99.90;;;;;;5032529;28;20048;-79
2024/01/04 01:18:34;;;;;;;0.60;0.60;;;5.40;99.90;;;;;;5037791;28;20120;-79
2024/01/04 01:21:00;;;;;;;;;;;5.30;99.90;;;;;;5017286;28;20048;-78
2024/01/04 01:23:25;;;;;;;0.70;0.70;;;5.30;99.90;;;;;;5036998;28;19920;-79
2024/01/04 01:25:51;;;;;;;0.45;0.45;;;;;;;;;;5017835;28;20128;-81
2024/01/04 01:28:17;;;;;;;0.50;0.50;;;5.30;99.90;;;;;;5023556;28;20045;-81
2024/01/04 01:30:43;;;;;;;0.63;0.63;;;5.20;99.90;;;;;;5040030;28;20048;-79
2024/01/04 01:33:09;;;;;;;0.45;0.45;;;5.20;99.90;;;;;;5032786;28;20458;-77
2024/01/04 01:35:34;;;;;;;0.52;0.52;;;5.10;99.90;;;;;;5031621;28;20036;-79
2024/01/04 01:38:00;;;;;;;0.60;0.60;;;5.00;99.90;;;;;;5018214;28;20051;-79
2024/01/04 01:40:26;;;;;;;0.57;0.57;;;5.00;99.90;;;;;;5011360;28;20136;-78
2024/01/04 01:42:52;;;;;;;0.50;0.50;;;4.90;99.90;;;;;;5015779;28;20526;-79
2024/01/04 01:45:20;;;;;;;0.50;0.50;;;4.90;99.90;;;;;;5039441;28;20037;-77
2024/01/04 01:47:47;;;;;;;0.70;0.70;;;4.80;99.90;;;;;;5032709;28;20034;-78
2024/01/04 01:50:20;;;;;;;0.50;0.50;;;4.80;99.90;;;;;;5018857;28;20048;-77
2024/01/04 01:52:48;;;;;;;0.63;0.63;;;4.70;99.90;;;;;;5024868;28;20487;-80
2024/01/04 01:55:15;;;;;;;0.47;0.47;;;5.20;99.90;;;;;;5041473;28;20044;-78
2024/01/04 01:57:42;;;;;;;0.50;0.50;;;4.80;99.90;;;;;;5031142;28;20600;-78
2024/01/04 02:00:10;;;;;;;0.60;0.60;;;4.70;99.90;;;;;;5012576;28;20049;-77
2024/01/04 02:02:36;;;;;;;0.50;0.50;;;4.70;99.90;;;;;;5020954;28;20037;-79
2024/01/04 02:05:02;;;;;;;0.60;0.60;;;4.60;99.90;;;;;;4998969;28;20037;-77
2024/01/04 02:07:28;;;;;;;0.50;0.50;;;4.60;99.90;;;;;;5022376;28;20114;-80
2024/01/04 02:09:54;;;;;;;0.60;0.60;;;4.60;99.90;;;;;;5038955;28;20053;-79
2024/01/04 02:12:20;;;;;;;0.40;0.40;;;4.50;99.90;;;;;;5025049;28;20121;-80
2024/01/04 02:14:48;;;;;;;0.40;0.40;;;4.40;99.90;;;;;;5026591;28;20080;-79
2024/01/04 02:17:13;;;;;;;0.63;0.63;;;4.30;99.90;;;;;;5016859;28;20117;-77
2024/01/04 02:19:40;;;;;;;0.60;0.60;;;4.30;99.90;;;;;;5035764;28;20040;-79
2024/01/04 02:22:06;;;;;;;0.68;0.68;;;4.40;99.90;;;;;;5038149;28;20541;-76
2024/01/04 02:24:31;;;;;;;0.57;0.57;;;4.40;99.90;;;;;;5014812;28;20072;-76
2024/01/04 02:26:57;;;;;;;0.60;0.60;;;4.40;99.90;;;;;;5026220;28;20118;-78
2024/01/04 02:29:23;;;;;;;0.60;0.60;;;4.50;99.90;;;;;;4994121;28;20052;-78
2024/01/04 02:31:49;;;;;;;0.80;0.80;;;4.40;99.90;;;;;;5040741;28;20053;-78
2024/01/04 02:34:15;;;;;;;0.63;0.63;;;4.40;99.90;;;;;;5009787;28;20125;-76
2024/01/04 02:36:40;;;;;;;0.70;0.70;;;4.40;99.90;;;;;;5040943;28;20152;-77
2024/01/04 02:39:09;;;;;;;2.03;1.00;;;4.40;99.90;;;;;;5031788;28;20042;-78
2024/01/04 02:41:34;;;;;;;0.60;0.60;;;4.30;99.90;;;;;;5041589;28;20132;-79
2024/01/04 02:44:00;;;;;;;0.70;0.70;;;4.30;99.90;;;;;;5041543;28;20120;-76
2024/01/04 02:46:26;;;;;;;0.57;0.57;;;4.20;99.90;;;;;;5033762;28;20530;-76
2024/01/04 02:48:52;;;;;;;0.70;0.70;;;3.20;99.90;;;;;;5007669;28;20089;-76
2024/01/04 02:51:17;;;;;;;0.60;0.60;;;4.20;99.90;;;;;;5024859;28;20049;-76
2024/01/04 02:53:43;;;;;;;0.57;0.57;;;4.20;99.90;;;;;;5035993;28;20053;-77
2024/01/04 02:56:08;;;;;;;0.70;0.70;;;4.20;99.90;;;;;;5015921;28;20085;-78
2024/01/04 02:58:34;;;;;;;0.70;0.70;;;4.40;99.90;;;;;;5018847;28;20127;-77
2024/01/04 03:01:00;;;;;;;0.70;0.70;;;4.50;99.90;;;;;;5036969;28;20480;-75
2024/01/04 03:03:26;;;;;;;0.52;0.52;;;4.10;99.90;;;;;;5022473;28;20110;-77
2024/01/04 03:05:52;;;;;;;0.55;0.55;;;4.10;99.90;;;;;;5031230;28;20092;-77
2024/01/04 03:08:17;;;;;;;0.70;0.70;;;4.10;99.90;;;;;;5022211;28;20152;-77
2024/01/04 03:10:43;;;;;;;0.60;0.60;;;4.10;99.90;;;;;;5065787;28;20186;-76
2024/01/04 03:13:09;;;;;;;0.60;0.60;;;4.20;99.90;;;;;;5059698;28;20072;-76
2024/01/04 03:15:35;;;;;;;0.60;0.60;;;4.10;99.90;;;;;;5025564;28;20875;-78
2024/01/04 03:18:00;;;;;;;0.52;0.52;;;4.50;99.90;;;;;;5031947;28;20065;-76
2024/01/04 03:20:26;;;;;;;0.60;0.60;;;4.10;99.90;;;;;;5077475;28;20082;-78
2024/01/04 03:22:52;;;;;;;0.60;0.60;;;4.10;99.90;;;;;;5055269;28;20097;-79
2024/01/04 03:25:18;;;;;;;0.63;0.63;;;4.00;99.90;;;;;;5053357;28;20081;-77
2024/01/04 03:27:44;;;;;;;0.65;0.65;;;4.20;99.90;;;;;;5060827;28;20047;-78
2024/01/04 03:30:10;;;;;;;0.55;0.55;;;4.20;99.90;;;;;;5043767;28;20439;-79
2024/01/04 03:32:36;;;;;;;0.50;0.50;;;3.90;99.90;;;;;;5059480;28;20044;-78
2024/01/04 03:35:04;;;;;;;0.52;0.52;;;3.80;99.90;;;;;;5056939;28;20064;-75
2024/01/04 03:37:30;;;;;;;0.70;0.70;;;3.90;99.90;;;;;;5060854;28;20048;-78
2024/01/04 03:39:56;;;;;;;0.70;0.70;;;4.00;99.90;;;;;;5057053;28;20055;-76
2024/01/04 03:42:21;;;;;;;0.60;0.60;;;3.90;99.90;;;;;;5063522;28;20097;-77
2024/01/04 03:44:47;;;;;;;0.65;0.65;;;3.80;99.90;;;;;;5046055;28;20076;-77
2024/01/04 03:47:13;;;;;;;0.65;0.65;;;3.90;99.90;;;;;;5031992;28;20121;-79
2024/01/04 03:49:38;;;;;;;0.70;0.70;;;3.90;99.90;;;;;;5058176;28;20095;-76
2024/01/04 03:52:04;;;;;;;0.70;0.70;;;3.90;99.90;;;;;;5061709;28;20094;-77
2024/01/04 03:54:30;;;;;;;0.68;0.68;;;4.00;99.90;;;;;;5021092;28;20048;-76
2024/01/04 03:56:56;;;;;;;0.60;0.60;;;3.90;99.90;;;;;;5073970;28;20036;-78
2024/01/04 03:59:22;;;;;;;0.60;0.60;;;3.90;99.90;;;;;;5045931;28;20710;-77
2024/01/04 04:01:48;;;;;;;0.50;0.50;;;3.90;99.90;;;;;;5060698;28;20101;-77
2024/01/04 04:04:20;;;;;;;0.55;0.55;;;3.90;99.90;;;;;;5034668;28;20123;-77
2024/01/04 04:06:45;;;;;;;0.60;0.60;;;4.10;99.90;;;;;;5063970;28;20114;-77
2024/01/04 04:09:11;;;;;;;0.60;0.60;;;4.00;99.90;;;;;;5039895;28;20101;-76
2024/01/04 04:11:37;;;;;;;0.70;0.70;;;4.00;99.90;;;;;;5072186;28;20044;-78
2024/01/04 04:14:03;;;;;;;0.60;0.60;;;4.00;99.90;;;;;;5022876;28;20111;-78
2024/01/04 04:16:28;;;;;;;0.65;0.65;;;4.00;99.90;;;;;;5057431;28;20039;-77
2024/01/04 04:18:54;;;;;;;0.50;0.50;;;4.00;99.90;;;;;;5039950;28;20141;-77
2024/01/04 04:21:21;;;;;;;0.70;0.70;;;5.00;99.90;;;;;;5033169;28;20454;-77
2024/01/04 04:23:49;;;;;;;0.63;0.63;;;4.00;99.90;;;;;;5058765;28;20036;-78
2024/01/04 04:26:22;;;;;;;0.65;0.65;;;3.90;99.90;;;;;;5064925;28;20079;-78
2024/01/04 04:28:48;;;;;;;0.68;0.68;;;4.00;99.90;;;;;;5039711;28;20095;-77
2024/01/04 04:31:15;;;;;;;0.60;0.60;;;4.10;99.90;;;;;;5063489;28;20048;-78
2024/01/04 04:33:41;;;;;;;0.60;0.60;;;3.90;99.90;;;;;;5054415;28;20051;-81
2024/01/04 04:36:07;;;;;;;0.55;0.55;;;4.00;99.90;;;;;;5057675;28;20044;-81
2024/01/04 04:38:34;;;;;;;;;;;3.80;99.90;;;;;;5068168;28;20044;-79
2024/01/04 04:41:00;;;;;;;0.70;0.70;;;2.70;99.90;;;;;;5062672;28;19920;-76
2024/01/04 04:43:26;;;;;;;0.60;0.60;;;3.80;99.90;;;;;;5061248;28;20055;-76
2024/01/04 04:45:52;;;;;;;0.60;0.60;;;3.90;99.90;;;;;;5067394;28;20047;-76
2024/01/04 04:48:17;;;;;;;0.52;0.52;;;3.90;99.90;;;;;;5066840;28;20037;-78
2024/01/04 04:50:43;;;;;;;0.63;0.63;;;3.90;99.90;;;;;;5015311;28;20036;-77
2024/01/04 04:53:09;;;;;;;0.65;0.65;;;3.90;99.90;;;;;;5060973;28;20127;-77
2024/01/04 04:55:34;;;;;;;0.68;0.68;;;3.90;99.90;;;;;;5036524;28;20048;-77
2024/01/04 04:58:00;;;;;;;0.50;0.50;;;3.90;99.90;;;;;;5058575;28;20392;-76
2024/01/04 05:00:26;;;;;;;0.65;0.65;;;4.00;99.90;;;;;;5065827;28;20045;-76
2024/01/04 05:02:51;;;;;;;0.50;0.50;;;3.90;99.90;;;;;;5056507;28;20119;-76
2024/01/04 05:05:17;;;;;;;0.63;0.63;;;4.00;99.90;;;;;;5053562;28;20051;-78
2024/01/04 05:07:43;;;;;;;0.50;0.50;;;4.00;99.90;;;;;;5060022;28;20047;-76
2024/01/04 05:10:08;;;;;;;0.68;0.68;;;4.00;99.90;;;;;;5031575;28;20140;-80
2024/01/04 05:12:34;;;;;;;0.60;0.60;;;4.00;99.90;;;;;;5028772;28;20039;-79
2024/01/04 05:15:00;;;;;;;0.60;0.60;;;4.20;99.90;;;;;;5009562;28;20059;-81
2024/01/04 05:17:25;;;;;;;0.60;0.60;;;4.00;99.90;;;;;;5036478;28;20038;-79
2024/01/04 05:19:51;;;;;;;0.60;0.60;;;3.90;99.90;;;;;;5030491;28;20524;-77
2024/01/04 05:22:18;;;;;;;0.73;0.73;;;3.90;99.90;;;;;;5029351;28;20044;-80
2024/01/04 05:24:43;;;;;;;0.63;0.63;;;3.80;99.90;;;;;;5007349;28;20160;-77
2024/01/04 05:27:09;;;;;;;0.60;0.60;;;3.90;99.90;;;;;;5028024;28;20112;-78
2024/01/04 05:29:35;;;;;;;0.70;0.70;;;3.70;99.90;;;;;;5028847;28;20042;-81
2024/01/04 05:32:02;;;;;;;;;;;3.70;99.90;;;;;;5023413;28;20034;-79
2024/01/04 05:34:32;;;;;;;0.68;0.68;;;3.70;99.90;;;;;;5015430;28;19990;-78
2024/01/04 05:36:58;;;;;;;0.70;0.70;;;3.60;99.90;;;;;;5025291;28;20044;-81
2024/01/04 05:39:24;;;;;;;;;;;3.60;99.90;;;;;;5037929;28;20110;-79
2024/01/04 05:41:50;;;;;;;0.60;0.60;;;4.50;99.90;;;;;;5031357;28;19968;-78
2024/01/04 05:44:15;;;;;;;0.65;0.65;;;3.50;99.90;;;;;;5045665;28;20079;-77
2024/01/04 05:46:41;;;;;;;0.70;0.70;;;3.60;99.90;;;;;;5036016;28;20124;-78
2024/01/04 05:49:07;;;;;;;0.60;0.60;;;3.90;99.90;;;;;;5042163;28;20401;-77
2024/01/04 05:51:32;;;;;;;0.70;0.70;;;3.40;99.90;;;;;;5039317;28;20098;-78
2024/01/04 05:53:58;;;;;;;0.60;0.60;;;3.40;99.90;;;;;;5027248;28;20158;-79
2024/01/04 05:56:24;;;;;;;0.63;0.63;;;3.30;99.90;;;;;;5023021;28;20485;-78
2024/01/04 05:58:49;;;;;;;0.70;0.70;;;3.30;99.90;;;;;;5033120;28;20126;-78
2024/01/04 06:01:15;;;;;;;0.68;0.68;;;3.20;99.90;;;;;;5021035;28;20556;-80
2024/01/04 06:03:41;;;;;;;0.70;0.70;;;3.40;99.90;;;;;;4998029;28;20033;-82
2024/01/04 06:06:07;;;;;;;0.60;0.60;;;3.20;99.90;;;;;;5026739;28;20494;-79
2024/01/04 06:08:33;;;;;;;0.50;0.50;;;3.10;99.90;;;;;;5034597;28;20507;-79
2024/01/04 06:10:58;;;;;;;0.68;0.68;;;3.10;99.90;;;;;;5060333;28;20119;-77
2024/01/04 06:13:26;;;;;;;0.60;0.60;;;3.00;99.90;;;;;;5052998;28;20040;-78
2024/01/04 06:15:55;;;;;;;0.60;0.60;;;3.00;99.90;;;;;;5059529;28;20366;-79
2024/01/04 06:18:20;;;;;;;0.60;0.60;;;2.90;99.90;;;;;;5025234;28;20050;-79
2024/01/04 06:20:47;;;;;;;0.60;0.60;;;2.90;99.90;;;;;;5065391;28;20041;-80
2024/01/04 06:23:13;;;;;;;0.60;0.60;;;2.90;99.90;;;;;;5023652;28;20040;-78
2024/01/04 06:25:38;;;;;;;0.60;0.60;;;2.80;99.90;;;;;;5035430;28;20041;-80
2024/01/04 06:28:05;;;;;;;0.60;0.60;;;2.80;99.90;;;;;;5029868;28;20045;-77
2024/01/04 06:30:33;;;;;;;0.68;0.68;;;2.70;99.90;;;;;;5017642;28;20033;-77
2024/01/04 06:32:58;;;;;;;0.60;0.60;;;2.70;99.90;;;;;;5022654;28;20120;-79
2024/01/04 06:35:24;;;;;;;0.65;0.65;;;3.60;99.90;;;;;;5042648;28;20143;-77
2024/01/04 06:37:51;;;;;;;0.60;0.60;;;2.70;99.90;;;;;;5049519;28;20792;-79
2024/01/04 06:40:16;;;;;;;0.50;0.50;;;2.60;99.90;;;;;;5067807;28;20036;-80
2024/01/04 06:42:42;;;;;;;0.65;0.65;;;2.60;99.90;;;;;;5049722;28;20440;-80
2024/01/04 06:45:08;;;;;;;0.60;0.60;;;2.70;99.90;;;;;;5073429;28;20504;-78
2024/01/04 06:47:34;;;;;;;0.60;0.60;;;2.70;99.90;;;;;;5061806;28;20056;-80
2024/01/04 06:50:00;;;;;;;0.82;0.82;;;3.10;99.90;;;;;;5045058;28;20417;-80
2024/01/04 06:52:25;;;;;;;0.70;0.70;;;2.70;99.90;;;;;;5045709;28;20037;-79
2024/01/04 06:54:51;;;;;;;0.70;0.70;;;2.70;99.90;;;;;;5062510;28;20052;-79
2024/01/04 06:57:17;;;;;;;0.70;0.70;;;2.70;99.90;;;;;;5053557;28;20047;-78
2024/01/04 06:59:43;;;;;;;0.70;0.70;;;3.00;99.90;;;;;;5050976;28;20045;-78
2024/01/04 07:02:08;;;;;;;0.60;0.60;;;2.50;99.90;;;;;;5042484;28;20165;-81
2024/01/04 07:04:34;;;;;;;0.73;0.73;;;3.20;99.90;;;;;;5029651;28;20037;-78
2024/01/04 07:07:00;;;;;;;0.60;0.60;;;3.00;99.90;;;;;;5038520;28;20043;-79
2024/01/04 07:09:25;;;;;;;0.60;0.60;;;2.80;99.90;;;;;;5056120;28;20060;-78
2024/01/04 07:11:52;;;;;;;0.60;0.60;;;2.80;99.90;;;;;;5030172;28;20048;-78
2024/01/04 07:14:17;;;;;;;0.60;0.60;;;2.80;99.90;;;;;;5051805;28;20044;-77
2024/01/04 07:16:49;;;;;;;0.65;0.65;;;2.60;99.90;;;;;;5054632;28;20129;-80
2024/01/04 07:19:14;;;;;;;0.70;0.70;;;3.00;99.90;;;;;;5047623;28;20040;-78
2024/01/04 07:21:42;;;;;;;0.60;0.60;;;2.20;99.90;;;;;;5037227;28;20034;-81
2024/01/04 07:24:08;;;;;;;0.65;0.65;;;2.80;99.90;;;;;;5039674;28;20391;-79
2024/01/04 07:26:33;;;;;;;0.50;0.50;;;2.80;99.90;;;;;;5037456;28;20133;-78
2024/01/04 07:29:00;;;;;;;0.60;0.60;;;2.30;99.90;;;;;;5051059;28;20049;-80
2024/01/04 07:31:25;;;;;;;0.70;0.70;;;2.40;99.90;;;;;;5016426;28;20760;-79
2024/01/04 07:33:51;;;;;;;0.70;0.70;;;2.50;99.90;;;;;;5040081;28;20045;-78
2024/01/04 07:36:17;;;;;;;0.82;0.82;;;2.80;99.90;;;;;;5068138;28;20040;-78
2024/01/04 07:38:43;;;;;;;;;;;2.60;99.90;;;;;;5039624;28;20044;-79
2024/01/04 07:41:09;;;;;;;0.50;0.50;;;2.70;99.90;;;;;;5060858;28;20550;-80
2024/01/04 07:43:35;;;;;;;0.70;0.70;;;2.30;99.90;;;;;;5035410;28;20470;-79
2024/01/04 07:46:00;;;;;;;0.70;0.70;;;3.30;99.90;;;;;;5053844;28;20040;-77
2024/01/04 07:48:26;;;;;;;0.68;0.68;;;2.30;99.90;;;;;;5055777;28;20425;-79
2024/01/04 07:50:52;;;;;;;0.70;0.70;;;2.60;99.90;;;;;;5054518;28;20097;-77
2024/01/04 07:53:18;;;;;;;0.70;0.70;;;2.70;99.90;;;;;;5042177;28;20154;-80
2024/01/04 07:55:44;;;;;;;0.70;0.70;;;3.30;99.90;;;;;;5036666;28;20107;-79
2024/01/04 07:58:09;;;;;;;;;;;3.00;99.90;;;;;;5052776;28;20572;-80
2024/01/04 08:00:35;;;;;;;0.55;0.55;;;2.50;99.90;;;;;;5037829;28;19920;-78
2024/01/04 08:03:01;;;;;;;0.60;0.60;;;2.20;99.90;;;;;;5054794;28;20028;-82
2024/01/04 08:05:27;;;;;;;0.57;0.57;;;2.80;99.90;;;;;;5057113;28;20470;-80
2024/01/04 08:07:52;;;;;;;0.60;0.60;;;2.00;99.90;;;;;;5024434;28;20525;-82
2024/01/04 08:10:18;;;;;;;0.70;0.70;;;3.50;99.90;;;;;;5052641;28;20465;-81
2024/01/04 08:12:45;;;;;;;0.60;0.60;;;2.60;99.90;;;;;;5056509;28;20389;-81
2024/01/04 08:15:11;;;;;;;0.60;0.60;;;2.20;99.90;;;;;;5054681;28;20116;-81
2024/01/04 08:17:37;;;;;;;0.50;0.50;;;3.00;99.90;;;;;;5054561;28;20658;-81
2024/01/04 08:20:04;;;;;;;;;;;2.10;99.90;;;;;;5055400;28;20045;-81
2024/01/04 08:22:30;;;;;;;0.70;0.70;;;2.30;99.90;;;;;;5068835;28;20392;-81
2024/01/04 08:24:56;;;;;;;0.70;0.70;;;2.60;99.90;;;;;;5054544;28;20041;-82
2024/01/04 08:27:23;;;;;;;0.63;0.63;;;2.40;99.90;;;;;;5054844;28;20124;-82
2024/01/04 08:29:50;;;;;;;0.55;0.55;;;3.20;99.90;;;;;;5054275;28;20045;-82
2024/01/04 08:32:19;;;;;;;0.50;0.50;;;2.90;99.90;;;;;;5038466;28;20385;-82
2024/01/04 08:34:45;;;;;;;0.70;0.70;;;3.20;99.90;;;;;;5054963;28;20128;-82
2024/01/04 08:37:13;;;;;;;0.70;0.70;;;3.00;99.90;;;;;;5038000;28;20075;-82
2024/01/04 08:39:39;;;;;;;0.55;0.55;;;2.60;99.90;;;;;;5020741;28;20120;-82
2024/01/04 08:42:06;;;;;;;0.90;0.90;;;2.60;99.90;;;;;;5053462;28;20044;-83
2024/01/04 08:44:32;;;;;;;0.70;0.70;;;2.90;99.90;;;;;;5037520;28;20106;-82
2024/01/04 08:46:57;;;;;;;0.70;0.70;;;3.80;99.90;;;;;;5037236;28;20033;-81
2024/01/04 08:49:23;;;;;;;0.60;0.60;;;3.00;99.90;;;;;;5038830;28;20051;-83
2024/01/04 08:51:49;;;;;;;0.70;0.70;;;3.00;99.90;;;;;;5039440;28;20037;-82
2024/01/04 08:54:15;;;;;;;0.60;0.60;;;2.80;99.90;;;;;;5032143;28;20033;-82
2024/01/04 08:56:41;;;;;;;0.60;0.60;;;4.00;99.90;;;;;;5040859;28;20072;-82
2024/01/04 08:59:07;;;;;;;0.50;0.50;;;3.40;99.90;;;;;;5034210;28;20037;-82
2024/01/04 09:01:32;;;;;;;0.60;0.60;;;3.30;99.90;;;;;;5044720;28;20095;-83
2024/01/04 09:03:58;;;;;;;0.60;0.60;;;;;;;;;;5060287;28;20048;-82
2024/01/04 09:06:25;;;;;;;0.60;0.60;;;;;;;;;;5043422;28;20041;-82
2024/01/04 09:08:51;;;;;;;0.55;0.55;;;;;;;;;;5035452;28;20079;-82
2024/01/04 09:11:17;;;;;;;0.60;0.60;;;;;;;;;;5046162;28;20040;-82
2024/01/04 09:13:45;;;;;;;0.60;0.60;;;;;;;;;;5025263;28;20107;-82
2024/01/04 09:16:11;;;;;;;0.65;0.65;;;3.40;99.90;;;;;;5006019;28;20061;-82
2024/01/04 09:18:37;;;;;;;;;;;3.70;99.90;;;;;;5013520;28;20116;-82
2024/01/04 09:21:03;;;;;;;0.50;0.50;;;3.50;99.90;;;;;;5049412;28;20347;-82
2024/01/04 09:23:29;;;;;;;0.60;0.60;;;3.50;99.90;;;;;;5031814;28;20099;-82
2024/01/04 09:25:54;;;;;;;0.70;0.70;;;3.40;99.90;;;;;;5022972;28;20033;-82
2024/01/04 09:28:23;;;;;;;0.65;0.65;;;2.90;99.90;;;;;;5030673;28;20044;-81
2024/01/04 09:30:49;;;;;;;0.60;0.60;;;3.30;99.90;;;;;;5035305;28;20525;-82
2024/01/04 09:33:15;;;;;;;0.52;0.52;;;3.30;99.90;;;;;;5015431;28;20076;-82
2024/01/04 09:35:41;;;;;;;0.60;0.60;;;4.40;99.90;;;;;;5015803;28;20053;-82
2024/01/04 09:38:07;;;;;;;0.65;0.65;;;3.40;99.90;;;;;;5032244;28;20053;-82
2024/01/04 09:40:33;;;;;;;0.50;0.50;;;3.20;99.90;;;;;;5032420;28;20113;-82
2024/01/04 09:43:00;;;;;;;0.60;0.60;;;3.30;99.90;;;;;;5005009;28;20041;-82
2024/01/04 09:45:29;;;;;;;0.70;0.70;;;3.10;99.90;;;;;;4999504;28;20052;-81
2024/01/04 09:47:56;;;;;;;0.65;0.65;;;3.10;99.90;;;;;;5032183;28;20041;-80
2024/01/04 09:50:23;;;;;;;0.70;0.70;;;3.10;99.90;;;;;;5049073;28;20290;-81
2024/01/04 09:52:51;;;;;;;;;;;3.00;99.90;;;;;;5020393;28;20406;-81
2024/01/04 09:55:20;;;;;;;0.70;0.70;;;3.60;99.90;;;;;;5032555;28;20381;-82
2024/01/04 09:57:46;;;;;;;0.60;0.60;;;3.40;99.90;;;;;;5015883;28;20053;-81
2024/01/04 10:00:12;;;;;;;0.50;0.50;;;3.20;99.90;;;;;;5032547;28;20041;-81
2024/01/04 10:02:40;;;;;;;;;;;3.30;99.90;;;;;;5018363;28;20038;-82
2024/01/04 10:05:08;;;;;;;0.70;0.70;;;3.30;99.90;;;;;;5032750;28;19973;-83
2024/01/04 10:07:43;;;;;;;0.60;0.60;;;3.40;99.90;;;;;;5016142;28;20076;-81
2024/01/04 10:10:20;;;;;;;0.70;0.70;;;3.70;99.90;;;;;;5015870;28;20057;-81
2024/01/04 10:12:47;;;;;;;0.70;0.70;;;3.80;99.90;;;;;;5031153;28;20176;-83
2024/01/04 10:15:15;;;;;;;0.60;0.60;;;3.70;99.90;;;;;;5015751;28;20041;-81
2024/01/04 10:17:44;;;;;;;0.70;0.70;;;3.60;99.90;;;;;;5028096;28;20050;-82
2024/01/04 10:20:10;;;;;;;0.60;0.60;;;3.80;99.90;;;;;;5032150;28;20091;-82
2024/01/04 10:22:36;;;;;;;0.60;0.60;;;3.70;99.90;;;;;;5008143;28;20479;-81
2024/01/04 10:25:18;;;;;;;0.65;0.65;;;3.70;99.90;;;;;;5000975;28;20033;-81
2024/01/04 10:27:55;;;;;;;0.52;0.52;;;3.80;99.90;;;;;;5034241;28;20042;-81
2024/01/04 10:30:21;;;;;;;0.70;0.70;;;3.90;99.90;;;;;;5049743;28;20512;-82
2024/01/04 10:32:53;;;;;;;0.65;0.65;;;3.80;99.90;;;;;;5024143;28;20033;-82
2024/01/04 10:35:26;;;;;;;0.50;0.50;;;3.80;99.90;;;;;;5017489;28;20119;-81
2024/01/04 10:38:01;;;;;;;0.60;0.60;;;3.70;99.90;;;;;;5034702;28;20046;-81
2024/01/04 10:40:27;;;;;;;0.70;0.70;;;3.70;99.90;;;;;;5034448;28;20052;-83
2024/01/04 10:42:54;;;;;;;0.68;0.68;;;3.60;99.90;;;;;;5018347;28;20045;-82
2024/01/04 10:45:32;;;;;;;0.60;0.60;;;4.80;99.90;;;;;;5013468;28;20076;-81
2024/01/04 10:47:58;;;;;;;0.60;0.60;;;3.40;99.90;;;;;;5032618;28;20057;-79
2024/01/04 10:50:24;;;;;;;0.60;0.60;;;3.50;99.90;;;;;;5014442;28;21688;-79
2024/01/04 10:52:55;;;;;;;0.55;0.55;;;3.60;99.90;;;;;;5036124;28;20201;-80
2024/01/04 10:55:21;;;;;;;0.65;0.65;;;3.50;99.90;;;;;;5021568;28;20102;-81
2024/01/04 10:57:48;;;;;;;0.70;0.70;;;3.50;99.90;;;;;;5039068;28;20098;-82
2024/01/04 11:00:16;;;;;;;0.60;0.60;;;3.50;99.90;;;;;;5047630;28;20045;-80
2024/01/04 11:02:43;;;;;;;0.60;0.60;;;3.50;99.90;;;;;;5033844;28;20139;-79
2024/01/04 11:05:10;;;;;;;0.50;0.50;;;3.60;99.90;;;;;;5033747;28;20034;-82
2024/01/04 11:07:40;;;;;;;0.60;0.60;;;4.10;99.90;;;;;;5039010;28;20056;-80
2024/01/04 11:10:09;;;;;;;0.60;0.60;;;3.70;99.90;;;;;;5061194;28;20136;-80
2024/01/04 11:12:36;;;;;;;0.60;0.60;;;3.70;99.90;;;;;;5042175;28;20128;-81
2024/01/04 11:15:03;;;;;;;0.60;0.60;;;3.70;99.90;;;;;;5035178;28;20077;-80
2024/01/04 11:17:57;;;;;;;0.50;0.50;;;3.70;99.90;;;;;;5027674;28;20042;-80
2024/01/04 11:20:42;;;;;;;0.70;0.70;;;3.80;99.90;;;;;;5034207;28;20045;-81
2024/01/04 11:23:22;;;;;;;0.60;0.60;;;3.80;99.90;;;;;;5031660;28;20447;-82
2024/01/04 11:26:17;;;;;;;0.60;0.60;;;3.90;99.90;;;;;;5032684;28;20049;-81
2024/01/04 11:28:45;;;;;;;0.50;0.50;;;4.00;99.90;;;;;;5026726;28;20049;-81
2024/01/04 11:31:12;;;;;;;0.52;0.52;;;4.10;99.90;;;;;;5029922;28;20040;-82
2024/01/04 11:33:40;;;;;;;0.60;0.60;;;3.70;99.90;;;;;;5029629;28;20049;-82
2024/01/04 11:36:08;;;;;;;0.52;0.52;;;4.20;99.90;;;;;;5016313;28;20044;-80
2024/01/04 11:38:34;;;;;;;0.60;0.60;;;4.10;99.90;;;;;;5046952;28;20049;-80
2024/01/04 11:41:03;;;;;;;0.40;0.40;;;4.40;99.90;;;;;;5025035;28;20041;-80
2024/01/04 11:43:40;;;;;;;0.60;0.60;;;4.40;99.90;;;;;;5036856;28;20042;-80
2024/01/04 11:46:22;;;;;;;0.60;0.60;;;4.50;99.90;;;;;;5031977;28;20045;-79
2024/01/04 11:49:04;;;;;;;0.60;0.60;;;4.50;99.90;;;;;;5031056;28;20045;-79
2024/01/04 11:51:50;;;;;;;0.55;0.55;;;4.40;99.90;;;;;;5012710;28;20107;-79
2024/01/04 11:54:20;;;;;;;0.50;0.50;;;4.50;99.90;;;;;;5030989;28;20052;-80
2024/01/04 11:56:47;;;;;;;0.50;0.50;;;4.50;99.90;;;;;;5034559;28;20037;-79
2024/01/04 11:59:17;;;;;;;0.45;0.45;;;4.50;99.90;;;;;;5017122;28;20049;-80
2024/01/04 12:01:44;;;;;;;0.40;0.40;;;4.50;99.90;;;;;;5036803;28;20056;-79
2024/01/04 12:04:14;;;;;;;0.57;0.57;;;4.50;99.90;;;;;;4993169;28;20110;-80
2024/01/04 12:06:43;;;;;;;0.50;0.50;;;4.70;99.90;;;;;;5002783;28;20037;-81
2024/01/04 12:09:10;;;;;;;0.50;0.50;;;4.50;99.90;;;;;;4994699;28;20037;-81
2024/01/04 12:11:37;;;;;;;0.50;0.50;;;4.60;99.90;;;;;;5020379;28;20103;-80
2024/01/04 12:14:05;;;;;;;0.50;0.50;;;4.60;99.90;;;;;;4999895;28;20114;-80
2024/01/04 12:16:31;;;;;;;0.50;0.50;;;4.60;99.90;;;;;;5010345;28;20045;-79
2024/01/04 12:18:57;;;;;;;;;;;5.50;99.90;;;;;;5030430;28;20038;-81
2024/01/04 12:21:25;;;;;;;0.60;0.60;;;4.70;99.90;;;;;;5020847;28;19928;-80
2024/01/04 12:23:52;;;;;;;0.60;0.60;;;4.80;99.90;;;;;;5039311;28;20033;-80
2024/01/04 12:26:23;;;;;;;0.50;0.50;;;4.90;99.90;;;;;;5034578;28;20045;-80
2024/01/04 12:28:50;;;;;;;0.60;0.60;;;4.90;99.90;;;;;;5027312;28;20052;-81
2024/01/04 12:31:16;;;;;;;0.50;0.50;;;4.80;99.90;;;;;;5028953;28;20521;-79
2024/01/04 12:33:42;;;;;;;0.60;0.60;;;4.90;99.90;;;;;;5042418;28;20443;-80
2024/01/04 12:36:08;;;;;;;0.60;0.60;;;4.90;99.90;;;;;;5031718;28;20164;-81
2024/01/04 12:38:34;;;;;;;0.70;0.70;;;4.80;99.90;;;;;;5018286;28;20120;-80
2024/01/04 12:40:59;;;;;;;0.70;0.70;;;4.80;99.90;;;;;;4997324;28;20115;-79
2024/01/04 12:43:26;;;;;;;0.60;0.60;;;4.70;99.90;;;;;;5012759;28;20029;-80
2024/01/04 12:46:04;;;;;;;0.47;0.47;;;4.70;99.90;;;;;;5045124;28;20041;-82
2024/01/04 12:48:30;;;;;;;0.50;0.50;;;4.90;99.90;;;;;;5034485;28;20045;-80
2024/01/04 12:51:05;;;;;;;;;;;4.70;99.90;;;;;;5014015;28;20056;-82
2024/01/04 12:53:31;;;;;;;0.50;0.50;;;4.70;99.90;;;;;;5029767;28;19928;-81
2024/01/04 12:55:57;;;;;;;0.60;0.60;;;4.60;99.90;;;;;;5039864;28;20547;-80
2024/01/04 12:58:23;;;;;;;0.70;0.70;;;4.60;99.90;;;;;;5026719;28;20052;-80
2024/01/04 13:00:48;;;;;;;0.50;0.50;;;4.60;99.90;;;;;;5025289;28;20475;-82
2024/01/04 13:03:14;;;;;;;0.50;0.50;;;4.60;99.90;;;;;;4994835;28;20889;-80